Terminal Aerodrome Forecast
Issued by NWS Rapid City, SD

Home | Current Version | Previous Version | Graphics & Text | Print | Product List | Glossary On
Versions: 1 2 3 4 5 6 7 8 9 10 11 12 13 14 15 16 17 18 19 20
000
FTUS43 KUNR 242300
TAFRAP
TAF
KRAP 242327Z 2500/2524 19009KT P6SM BKN150
     FM250600 32015KT P6SM OVC070
     FM250900 34015G25KT 2SM -SN OVC015
     FM251500 35025G35KT 1SM -SN BLSN OVC010=

USA.gov is the U.S. government's official web portal to all federal, state and local government web resources and services.